createdAt,value
2023-02-12T00:02:18.585Z,2.20
2023-02-12T00:04:48.767Z,2.20
2023-02-12T00:09:43.127Z,2.60
2023-02-12T00:14:38.285Z,1.90
2023-02-12T00:19:32.501Z,1.90
2023-02-12T00:22:00.477Z,1.70
2023-02-12T00:26:54.981Z,1.30
2023-02-12T00:29:21.957Z,1.20
2023-02-12T00:31:49.097Z,1.90
2023-02-12T00:41:38.630Z,0.70
2023-02-12T00:46:32.785Z,0.80
2023-02-12T00:51:27.062Z,0.40
2023-02-12T01:01:15.910Z,0.20
2023-02-12T01:03:42.879Z,0.70
2023-02-12T01:06:09.778Z,0.20
2023-02-12T01:08:36.666Z,0.70
2023-02-12T01:11:06.281Z,0.50
2023-02-12T01:13:35.052Z,0.80
2023-02-12T01:16:17.973Z,0.80
2023-02-12T01:18:45.548Z,0.70
2023-02-12T01:21:21.738Z,0.90
2023-02-12T01:23:49.704Z,0.60
2023-02-12T01:26:17.664Z,0.90
2023-02-12T01:28:51.997Z,0.90
2023-02-12T01:31:25.627Z,0.90
2023-02-12T01:33:58.967Z,1.00
2023-02-12T01:36:26.941Z,1.30
2023-02-12T01:41:29.131Z,0.90
2023-02-12T01:44:14.256Z,1.10
2023-02-12T01:49:16.652Z,1.30
2023-02-12T01:51:46.355Z,0.90
2023-02-12T01:54:17.521Z,1.20
2023-02-12T01:56:44.851Z,1.20
2023-02-12T01:59:13.035Z,1.10
2023-02-12T02:01:40.089Z,1.20
2023-02-12T02:04:15.083Z,1.30
2023-02-12T02:06:52.622Z,1.30
2023-02-12T02:09:20.161Z,1.30
2023-02-12T02:12:05.628Z,1.30
2023-02-12T02:14:32.855Z,0.50
2023-02-12T02:17:27.741Z,1.00
2023-02-12T02:20:22.997Z,1.00
2023-02-12T02:23:08.722Z,1.00
2023-02-12T02:25:58.086Z,0.80
2023-02-12T02:28:53.421Z,1.00
2023-02-12T02:31:38.137Z,1.00
2023-02-12T02:34:20.283Z,1.00
2023-02-12T02:37:00.029Z,0.90
2023-02-12T02:39:48.627Z,1.30
2023-02-12T02:42:32.302Z,1.40
2023-02-12T02:45:18.838Z,0.90
2023-02-12T02:47:55.390Z,1.40
2023-02-12T02:50:27.088Z,1.40
2023-02-12T02:53:02.021Z,1.30
2023-02-12T02:55:47.134Z,1.20
2023-02-12T02:58:16.510Z,1.10
2023-02-12T03:00:53.794Z,1.10
2023-02-12T03:03:26.376Z,1.30
2023-02-12T03:05:59.309Z,1.30
2023-02-12T03:08:34.384Z,1.00
2023-02-12T03:11:20.985Z,0.90
2023-02-12T03:13:52.683Z,1.00
2023-02-12T03:16:27.616Z,1.00
2023-02-12T03:19:02.453Z,1.30
2023-02-12T03:21:35.392Z,0.80
2023-02-12T03:24:15.943Z,1.00
2023-02-12T03:26:50.796Z,1.00
2023-02-12T03:29:17.893Z,0.90
2023-02-12T03:31:56.786Z,1.00
2023-02-12T03:34:50.634Z,1.00
2023-02-12T03:37:25.106Z,2.50
2023-02-12T03:39:58.391Z,0.90
2023-02-12T03:42:39.555Z,1.00
2023-02-12T03:45:28.794Z,0.90
2023-02-12T03:48:04.709Z,0.90
2023-02-12T03:50:37.529Z,1.00
2023-02-12T03:53:06.080Z,1.10
2023-02-12T03:55:37.943Z,1.00
2023-02-12T03:58:09.532Z,0.90
2023-02-12T04:00:38.818Z,1.00
2023-02-12T04:03:07.159Z,0.80
2023-02-12T04:08:04.393Z,1.20
2023-02-12T04:11:11.677Z,1.00
2023-02-12T04:14:00.938Z,1.00
2023-02-12T04:16:40.992Z,0.90
2023-02-12T04:19:13.063Z,1.00
2023-02-12T04:21:58.358Z,1.10
2023-02-12T04:25:22.272Z,1.00
2023-02-12T04:28:01.020Z,1.10
2023-02-12T04:30:37.820Z,0.80
2023-02-12T04:33:07.208Z,1.00
2023-02-12T04:35:47.129Z,0.90
2023-02-12T04:38:19.929Z,0.90
2023-02-12T04:40:48.209Z,0.90
2023-02-12T04:48:10.707Z,0.60
2023-02-12T04:50:42.845Z,0.80
2023-02-12T04:53:10.821Z,0.90
2023-02-12T04:55:38.021Z,1.10
2023-02-12T04:58:05.691Z,0.80
2023-02-12T05:03:00.113Z,0.60
2023-02-12T05:05:27.619Z,0.80
2023-02-12T05:07:54.473Z,0.90
2023-02-12T05:10:21.395Z,1.00
2023-02-12T05:12:48.202Z,0.90
2023-02-12T05:15:15.258Z,1.30
2023-02-12T05:20:10.585Z,1.00
2023-02-12T05:22:37.560Z,1.10
2023-02-12T05:25:05.732Z,0.90
2023-02-12T05:29:59.870Z,1.10
2023-02-12T05:39:50.488Z,0.80
2023-02-12T05:44:45.196Z,1.10
2023-02-12T05:47:12.031Z,1.00
2023-02-12T05:49:38.880Z,0.50
2023-02-12T05:54:33.010Z,0.40
2023-02-12T05:56:59.864Z,0.80
2023-02-12T06:01:54.002Z,0.90
2023-02-12T06:04:27.196Z,0.70
2023-02-12T06:06:55.859Z,0.70
2023-02-12T06:09:23.638Z,0.80
2023-02-12T06:11:50.528Z,0.70
2023-02-12T06:14:19.643Z,0.80
2023-02-12T06:16:48.831Z,0.70
2023-02-12T06:19:16.275Z,0.60
2023-02-12T06:24:13.626Z,0.70
2023-02-12T06:29:08.266Z,0.50
2023-02-12T06:31:36.909Z,0.60
2023-02-12T06:34:06.730Z,0.90
2023-02-12T06:39:02.778Z,0.50
2023-02-12T06:41:30.207Z,0.90
2023-02-12T06:48:56.601Z,0.70
2023-02-12T06:51:23.963Z,0.80
2023-02-12T06:53:52.326Z,0.90
2023-02-12T06:56:20.483Z,1.10
2023-02-12T06:58:52.541Z,0.90
2023-02-12T07:01:22.900Z,1.20
2023-02-12T07:03:51.511Z,1.40
2023-02-12T07:06:18.886Z,1.50
2023-02-12T07:08:46.089Z,1.70
2023-02-12T07:11:13.204Z,1.40
2023-02-12T07:13:44.679Z,1.60
2023-02-12T07:16:17.191Z,1.60
2023-02-12T07:18:44.923Z,1.40
2023-02-12T07:21:13.604Z,1.40
2023-02-12T07:26:11.945Z,1.60
2023-02-12T07:28:39.974Z,1.10
2023-02-12T07:31:21.988Z,0.90
2023-02-12T07:36:18.710Z,1.20
2023-02-12T07:38:45.868Z,1.60
2023-02-12T07:41:24.350Z,1.80
2023-02-12T07:43:56.926Z,1.50
2023-02-12T07:46:30.094Z,1.70
2023-02-12T07:48:59.194Z,1.80
2023-02-12T07:51:27.686Z,1.90
2023-02-12T07:53:54.922Z,1.40
2023-02-12T07:56:24.803Z,1.70
2023-02-12T07:58:53.610Z,1.40
2023-02-12T08:01:23.501Z,1.20
2023-02-12T08:03:51.163Z,1.70
2023-02-12T08:06:20.610Z,1.70
2023-02-12T08:08:47.993Z,1.60
2023-02-12T08:11:15.794Z,1.30
2023-02-12T08:16:20.681Z,2.00
2023-02-12T08:21:21.178Z,2.30
2023-02-12T08:23:50.744Z,2.20
2023-02-12T08:26:32.422Z,2.40
2023-02-12T08:29:08.357Z,3.20
2023-02-12T08:31:40.876Z,3.80
2023-02-12T08:34:15.404Z,4.80
2023-02-12T08:36:42.697Z,4.60
2023-02-12T08:41:37.773Z,5.40
2023-02-12T08:44:05.642Z,5.20
2023-02-12T08:46:35.051Z,5.60
2023-02-12T08:49:12.120Z,5.60
2023-02-12T08:51:41.301Z,6.50
2023-02-12T08:54:12.647Z,7.50
2023-02-12T08:56:40.496Z,6.60
2023-02-12T08:59:09.302Z,6.90
2023-02-12T09:01:43.649Z,7.50
2023-02-12T09:04:21.550Z,6.50
2023-02-12T09:09:16.242Z,9.00
2023-02-12T09:11:43.299Z,9.00
2023-02-12T09:14:13.601Z,8.80
2023-02-12T09:16:41.272Z,10.00
2023-02-12T09:19:09.680Z,8.00
2023-02-12T09:24:03.874Z,7.70
2023-02-12T09:26:31.203Z,8.30
2023-02-12T09:28:59.377Z,8.00
2023-02-12T09:31:29.283Z,8.00
2023-02-12T09:34:00.716Z,8.70
2023-02-12T09:36:27.911Z,9.10
2023-02-12T09:43:53.077Z,9.00
2023-02-12T09:46:39.529Z,7.00
2023-02-12T09:49:26.530Z,8.40
2023-02-12T09:51:55.164Z,9.40
2023-02-12T09:54:26.012Z,8.80
2023-02-12T09:56:59.431Z,9.60
2023-02-12T10:04:22.667Z,7.00
2023-02-12T10:07:12.607Z,8.10
2023-02-12T10:09:45.706Z,9.50
2023-02-12T10:12:28.264Z,8.00
2023-02-12T10:15:16.021Z,8.30
2023-02-12T10:17:52.891Z,8.50
2023-02-12T10:20:58.712Z,8.20
2023-02-12T10:23:41.829Z,8.80
2023-02-12T10:26:32.305Z,9.40
2023-02-12T10:29:09.522Z,10.10
2023-02-12T10:31:40.924Z,9.80
2023-02-12T10:34:32.749Z,9.00
2023-02-12T10:37:12.683Z,8.90
2023-02-12T10:39:48.804Z,9.30
2023-02-12T10:42:22.128Z,9.40
2023-02-12T10:47:20.631Z,10.00
2023-02-12T10:50:02.317Z,11.40
2023-02-12T10:52:48.608Z,9.80
2023-02-12T10:55:36.962Z,10.70
2023-02-12T10:58:05.120Z,9.70
2023-02-12T11:00:33.441Z,10.60
2023-02-12T11:03:12.608Z,10.30
2023-02-12T11:05:42.463Z,10.50
2023-02-12T11:08:32.153Z,10.10
2023-02-12T11:11:27.819Z,10.00
2023-02-12T11:14:16.392Z,9.30
2023-02-12T11:16:58.882Z,9.60
2023-02-12T11:19:32.015Z,10.60
2023-02-12T11:22:11.654Z,9.60
2023-02-12T11:24:38.831Z,10.70
2023-02-12T11:27:31.774Z,11.00
2023-02-12T11:30:30.532Z,11.00
2023-02-12T11:33:39.019Z,9.70
2023-02-12T11:36:15.347Z,10.80
2023-02-12T11:38:52.815Z,10.80
2023-02-12T11:41:41.356Z,11.00
2023-02-12T11:44:28.655Z,10.00
2023-02-12T11:47:09.637Z,10.30
2023-02-12T11:49:50.523Z,11.10
2023-02-12T11:52:22.253Z,10.10
2023-02-12T11:54:51.582Z,9.10
2023-02-12T11:57:42.848Z,9.30
2023-02-12T12:00:38.652Z,9.80
2023-02-12T12:03:20.308Z,9.90
2023-02-12T12:05:51.419Z,10.80
2023-02-12T12:08:29.568Z,10.40
2023-02-12T12:11:28.257Z,9.60
2023-02-12T12:14:16.760Z,10.10
2023-02-12T12:17:09.461Z,10.20
2023-02-12T12:19:54.925Z,10.60
2023-02-12T12:22:42.480Z,11.20
2023-02-12T12:25:30.969Z,10.60
2023-02-12T12:28:17.593Z,9.80
2023-02-12T12:30:47.577Z,9.70
2023-02-12T12:33:46.529Z,9.40
2023-02-12T12:36:13.491Z,9.90
2023-02-12T12:39:01.470Z,9.60
2023-02-12T12:41:42.393Z,9.30
2023-02-12T12:44:37.177Z,9.60
2023-02-12T12:47:19.068Z,8.40
2023-02-12T12:49:54.652Z,8.60
2023-02-12T12:52:24.729Z,8.00
2023-02-12T12:55:12.724Z,8.90
2023-02-12T12:57:47.013Z,8.20
2023-02-12T13:00:31.988Z,9.30
2023-02-12T13:03:17.229Z,9.30
2023-02-12T13:05:52.049Z,8.10
2023-02-12T13:09:16.212Z,8.10
2023-02-12T13:12:16.656Z,8.40
2023-02-12T13:15:04.586Z,7.90
2023-02-12T13:17:37.016Z,9.30
2023-02-12T13:20:18.367Z,8.80
2023-02-12T13:22:50.597Z,8.50
2023-02-12T13:25:42.756Z,8.10
2023-02-12T13:28:41.933Z,8.20
2023-02-12T13:31:32.496Z,8.30
2023-02-12T13:34:04.826Z,8.00
2023-02-12T13:36:35.065Z,7.10
2023-02-12T13:39:36.640Z,7.20
2023-02-12T13:42:43.858Z,7.50
2023-02-12T13:45:29.573Z,7.60
2023-02-12T13:48:18.016Z,7.70
2023-02-12T13:51:00.998Z,7.70
2023-02-12T13:53:47.485Z,7.50
2023-02-12T13:56:31.875Z,7.40
2023-02-12T14:01:49.614Z,6.10
2023-02-12T14:04:19.687Z,6.40
2023-02-12T14:07:14.032Z,6.40
2023-02-12T14:09:42.639Z,6.40
2023-02-12T14:12:15.045Z,5.70
2023-02-12T14:14:48.707Z,5.30
2023-02-12T14:17:30.949Z,5.40
2023-02-12T14:20:30.509Z,5.40
2023-02-12T14:23:20.831Z,5.20
2023-02-12T14:25:58.789Z,5.00
2023-02-12T14:28:40.233Z,4.80
2023-02-12T14:31:27.397Z,4.90
2023-02-12T14:34:06.288Z,4.80
2023-02-12T14:39:28.018Z,4.50
2023-02-12T14:42:15.683Z,4.30
2023-02-12T14:44:55.026Z,4.20
2023-02-12T14:47:30.526Z,4.40
2023-02-12T14:50:07.387Z,4.20
2023-02-12T14:52:40.917Z,3.90
2023-02-12T14:55:31.027Z,2.50
2023-02-12T14:58:07.636Z,3.40
2023-02-12T15:00:40.463Z,3.10
2023-02-12T15:03:14.006Z,3.00
2023-02-12T15:06:05.876Z,2.90
2023-02-12T15:08:48.936Z,2.20
2023-02-12T15:11:38.667Z,2.60
2023-02-12T15:14:23.982Z,2.60
2023-02-12T15:17:14.988Z,2.50
2023-02-12T15:19:51.313Z,2.50
2023-02-12T15:22:25.151Z,2.30
2023-02-12T15:24:52.044Z,2.10
2023-02-12T15:27:20.548Z,2.00
2023-02-12T15:29:51.202Z,2.00
2023-02-12T15:32:27.620Z,1.50
2023-02-12T15:34:55.619Z,1.90
2023-02-12T15:37:29.128Z,2.00
2023-02-12T15:39:59.533Z,1.40
2023-02-12T15:42:38.466Z,1.70
2023-02-12T15:45:13.962Z,1.90
2023-02-12T15:47:41.885Z,1.50
2023-02-12T15:50:18.270Z,1.80
2023-02-12T15:52:47.501Z,1.70
2023-02-12T15:55:21.636Z,1.40
2023-02-12T15:57:59.734Z,1.80
2023-02-12T16:00:47.625Z,1.40
2023-02-12T16:03:33.246Z,1.70
2023-02-12T16:06:16.672Z,0.90
2023-02-12T16:08:46.019Z,0.90
2023-02-12T16:11:16.875Z,1.20
2023-02-12T16:14:00.820Z,1.20
2023-02-12T16:16:31.283Z,1.10
2023-02-12T16:19:24.443Z,0.70
2023-02-12T16:22:23.080Z,0.90
2023-02-12T16:24:52.730Z,0.90
2023-02-12T16:27:23.195Z,0.70
2023-02-12T16:29:53.445Z,0.80
2023-02-12T16:32:41.867Z,1.30
2023-02-12T16:35:12.362Z,0.50
2023-02-12T16:37:39.206Z,0.50
2023-02-12T16:40:18.028Z,0.70
2023-02-12T16:42:47.866Z,0.70
2023-02-12T16:45:26.950Z,0.70
2023-02-12T16:48:23.369Z,0.60
2023-02-12T16:50:56.093Z,0.70
2023-02-12T16:53:45.639Z,0.30
2023-02-12T16:56:16.029Z,0.60
2023-02-12T16:58:43.250Z,0.40
2023-02-12T17:03:38.901Z,0.20
2023-02-12T17:08:33.052Z,0.60
2023-02-12T17:11:00.372Z,0.60
2023-02-12T17:13:27.286Z,0.20
2023-02-12T17:15:57.316Z,0.50
2023-02-12T17:18:25.448Z,0.30
2023-02-12T17:20:56.157Z,0.50
2023-02-12T17:28:18.208Z,0.60
2023-02-12T17:30:45.165Z,0.60
2023-02-12T17:33:12.792Z,0.20
2023-02-12T17:38:07.367Z,0.20
2023-02-12T17:40:38.952Z,0.10
2023-02-12T17:43:06.533Z,0.10
2023-02-12T17:45:33.866Z,-0.10
2023-02-12T17:55:22.647Z,0.50
2023-02-12T17:57:53.575Z,0.30
2023-02-12T18:00:21.221Z,0.30
2023-02-12T18:02:49.010Z,0.30
2023-02-12T18:07:43.335Z,0.20
2023-02-12T18:10:11.746Z,0.30
2023-02-12T18:12:38.784Z,0.40
2023-02-12T18:15:07.550Z,0.50
2023-02-12T18:17:35.770Z,0.50
2023-02-12T18:20:03.035Z,-2.10
2023-02-12T18:22:29.933Z,1.20
2023-02-12T18:32:19.182Z,0.40
2023-02-12T18:37:13.990Z,0.10
2023-02-12T18:39:40.915Z,0.40
2023-02-12T18:42:08.821Z,1.20
2023-02-12T18:47:03.432Z,-0.10
2023-02-12T18:54:25.124Z,-0.20
2023-02-12T18:56:53.441Z,-0.30
2023-02-12T18:59:21.243Z,-0.30
2023-02-12T19:04:20.208Z,-4.20
2023-02-12T19:06:50.405Z,-0.30
2023-02-12T19:09:20.285Z,-0.20
2023-02-12T19:11:49.157Z,-0.30
2023-02-12T19:14:18.033Z,-0.30
2023-02-12T19:16:46.002Z,-0.40
2023-02-12T19:19:14.556Z,-0.30
2023-02-12T19:26:36.557Z,-0.20
2023-02-12T19:29:05.041Z,-0.40
2023-02-12T19:31:37.978Z,0.50
2023-02-12T19:34:06.013Z,-0.40
2023-02-12T19:36:36.255Z,-0.40
2023-02-12T19:39:04.540Z,-0.30
2023-02-12T19:41:32.916Z,-0.60
2023-02-12T19:44:01.518Z,-1.60
2023-02-12T19:46:31.005Z,-0.50
2023-02-12T19:49:00.314Z,-0.50
2023-02-12T19:51:29.900Z,-0.60
2023-02-12T19:54:04.874Z,-0.60
2023-02-12T19:56:31.831Z,-0.60
2023-02-12T19:58:59.020Z,1.10
2023-02-12T20:06:24.252Z,-0.40
2023-02-12T20:11:25.359Z,-0.50
2023-02-12T20:13:52.897Z,-0.50
2023-02-12T20:16:22.189Z,-0.50
2023-02-12T20:18:51.859Z,-0.40
2023-02-12T20:21:22.283Z,-0.60
2023-02-12T20:23:49.563Z,-0.80
2023-02-12T20:26:17.711Z,-0.40
2023-02-12T20:31:20.922Z,-0.60
2023-02-12T20:33:48.741Z,-0.60
2023-02-12T20:38:44.806Z,-0.50
2023-02-12T20:41:12.284Z,-0.70
2023-02-12T20:46:09.600Z,-0.10
2023-02-12T20:48:37.338Z,-0.60
2023-02-12T20:51:09.309Z,-0.60
2023-02-12T20:56:06.979Z,-0.60
2023-02-12T20:58:34.220Z,-0.50
2023-02-12T21:01:06.247Z,-0.40
2023-02-12T21:06:01.490Z,-0.40
2023-02-12T21:11:03.904Z,-0.40
2023-02-12T21:13:30.749Z,-0.30
2023-02-12T21:16:05.427Z,-0.40
2023-02-12T21:21:13.660Z,-0.30
2023-02-12T21:23:41.110Z,-0.30
2023-02-12T21:26:11.225Z,-0.40
2023-02-12T21:28:39.062Z,-0.30
2023-02-12T21:31:11.984Z,-0.40
2023-02-12T21:33:40.781Z,-0.30
2023-02-12T21:36:10.212Z,-0.40
2023-02-12T21:38:40.806Z,-0.30
2023-02-12T21:41:15.788Z,-0.40
2023-02-12T21:43:45.492Z,-0.30
2023-02-12T21:46:12.964Z,-0.40
2023-02-12T21:51:16.498Z,-0.40
2023-02-12T21:56:10.571Z,-0.40
2023-02-12T22:01:12.520Z,-0.20
2023-02-12T22:06:08.858Z,-0.10
2023-02-12T22:08:36.617Z,0.00
2023-02-12T22:11:05.209Z,0.00
2023-02-12T22:13:32.986Z,0.10
2023-02-12T22:16:36.416Z,0.10
2023-02-12T22:19:04.038Z,0.00
2023-02-12T22:21:35.170Z,0.20
2023-02-12T22:24:04.417Z,0.10
2023-02-12T22:26:32.699Z,-3.10
2023-02-12T22:29:08.519Z,0.30
2023-02-12T22:31:37.551Z,0.30
2023-02-12T22:34:07.255Z,0.00
2023-02-12T22:36:36.705Z,0.60
2023-02-12T22:41:31.695Z,0.60
2023-02-12T22:44:00.789Z,0.50
2023-02-12T22:51:25.658Z,0.70
2023-02-12T22:53:53.254Z,0.80
2023-02-12T22:56:20.503Z,1.90
2023-02-12T23:01:18.771Z,0.80
2023-02-12T23:03:46.330Z,0.90
2023-02-12T23:06:23.130Z,1.00
2023-02-12T23:08:56.373Z,0.70
2023-02-12T23:11:24.666Z,1.00
2023-02-12T23:13:52.470Z,1.00
2023-02-12T23:18:47.392Z,1.10
2023-02-12T23:21:14.474Z,1.10
2023-02-12T23:26:09.000Z,1.10
2023-02-12T23:28:35.893Z,0.90
2023-02-12T23:33:30.439Z,0.90
2023-02-12T23:35:57.281Z,0.80
2023-02-12T23:38:24.085Z,1.10
2023-02-12T23:45:46.896Z,1.10
2023-02-12T23:50:41.956Z,1.10
2023-02-12T23:53:10.219Z,1.00
2023-02-12T23:55:38.119Z,1.10
2023-02-12T23:58:06.014Z,1.10
